Startpagina
METAR-TAF:

METAR-TAF

Vliegvelden :

Luchthaven Stockholm-Arlanda

Stockholm-Arlanda, Zweden

breedte: 59-39N, lengte: 017-57E, hoogte: 38 m

Actueel weer

Dit bericht is 26 minuten geleden gemaakt, om 17:20 UTC
Wind 7 kt uit het oosten
Temperatuur 13°C
Vochtigheid 54%
Druk 1018 hPa
Zicht 10 km of meer
Geheel bewolkt op 6800 ft
lichte motregen

METAR: ESSA 251720Z 10007KT 9999 -DZ OVC068 13/04 Q1018 NOSIG

Tijdstip: 19:46 (17:46 UTC)

Verwachting

Dit bericht is 16 minuten geleden gemaakt, om 17:30 UTC
Verwachting geldig van 25 om 18 UTC tot 26 om 18 UTC
Wind 8 kt uit het oostnoordoosten
Zicht 10 km of meer
geen wolken onder 1500 m en geen cumulonimbus

TAF: ESSA 251730Z 2518/2618 07008KT CAVOK

Waarnemingen en weersverwachtingen van meer dan 4000 vliegvelden (METAR en TAF).

De beschikbare stations zijn de gele en rode punten op de kaart.

Ga met uw muis naar het station om de naam te zien.

Klik dan om waarnemingen en weersverwachtingen te zien.

kaart wijzigen: klik op de groene knoppen met een zwart kruis om in te zoomen, op de groene knop met een streepje om uit te zoomen of op de groene pijlen voor aangrenzende kaarten.


METAR-TAF: